Flight Track Log - Related Links

Times and Time Zones

All times are in EDT time to prevent confusion due to time zone crossing. See the EJA831 flight status page for this flight to view local times or setup timezone preferences in your user account.

Time Position Orientation Groundspeed Altitude Reporting Facility
EDT Latitude Longitude Course Direction KTS MPH feet Rate Location/Type
Fri 08:30:53 AM 42.1375 -87.9081 33° Northeast 171 197 22,000  Level Chicago Center
Fri 08:31:55 AM 42.1753 -87.8744 33° Northeast 189 217 4,600 -7,113 Descending Chicago Center
Fri 08:32:57 AM 42.2286 -87.8211 37° Northeast 242 278 7,300 3,048 Climbing Chicago Center
Fri 08:33:59 AM 42.3228 -87.8200 360° North 284 327 10,900 3,122 Climbing Chicago Center
Fri 08:35:00 AM 42.4014 -87.8267 356° North 293 337 13,700 2,732 Climbing Chicago Center
Fri 08:36:02 AM 42.4839 -87.8217 North 294 338 16,500 2,516 Climbing Chicago Center
Fri 08:37:04 AM 42.5681 -87.8169 North 301 346 18,900 2,323 Climbing Chicago Center
Fri 08:38:06 AM 42.6717 -87.8117 North 317 365 21,300 1,500 Climbing Chicago Center
Fri 08:39:08 AM 42.7661 -87.8050 North 337 388 22,000 339 Climbing Chicago Center
Fri 08:40:10 AM 42.8711 -87.7975 North 369 425 22,000  Level Chicago Center
Fri 08:41:11 AM 42.9783 -87.7903 North 382 440 22,000  Level Chicago Center
Fri 08:42:13 AM 43.0811 -87.7844 North 374 430 22,000  Level Chicago Center
Fri 08:43:15 AM 43.2056 -87.7761 North 382 440 22,000  Level Chicago Center
Fri 08:44:17 AM 43.3108 -87.7694 North 381 438 22,000  Level Chicago Center
Fri 08:45:19 AM 43.4158 -87.7622 North 380 437 22,000  Level Chicago Center
Fri 08:46:21 AM 43.5200 -87.7558 North 377 434 22,000  Level Chicago Center
Fri 08:47:23 AM 43.6225 -87.7506 North 372 428 22,000  Level Chicago Center
Fri 08:48:25 AM 43.7411 -87.7428 North 369 425 22,000  Level Chicago Center
Fri 08:49:27 AM 43.8419 -87.7372 North 365 420 22,000  Level Chicago Center
Fri 08:50:28 AM 43.9428 -87.7300 North 363 418 22,000  Level Chicago Center
Fri 08:51:30 AM 44.0431 -87.7247 North 362 417 22,000  Level Chicago Center
Fri 08:52:32 AM 44.1431 -87.7172 North 361 415 22,000  Level Chicago Center
Fri 08:53:34 AM 44.2439 -87.7122 North 362 417 22,000  Level Chicago Center
Fri 08:54:36 AM 44.3597 -87.7042 North 358 412 22,000  Level Chicago Center
Fri 08:55:38 AM 44.4608 -87.6978 North 361 415 22,000  Level Chicago Center
Fri 08:56:40 AM 44.5519 -87.6911 North 362 417 22,000  Level Chicago Center
Fri 08:57:42 AM 44.6728 -87.6822 North 363 418 22,000  Level Chicago Center
Fri 08:59:04 AM 44.7922 -87.6733 North 360 414 22,000  Level Minneapolis Center
Fri 09:00:18 AM 44.9144 -87.6658 North 364 419 22,000  Level Minneapolis Center
Fri 09:01:19 AM 45.0164 -87.6581 North 365 420 22,000  Level Minneapolis Center
Fri 09:02:21 AM 45.1383 -87.6492 North 366 421 22,000 -97 Level Minneapolis Center
Fri 09:03:23 AM 45.2397 -87.6325 North 365 420 21,800 -1,073 Descending Minneapolis Center
Fri 09:04:24 AM 45.3392 -87.6133 North 361 415 19,800 -1,659 Descending Minneapolis Center
Fri 09:05:26 AM 45.4414 -87.5917 North 368 423 18,400 -1,355 Descending Minneapolis Center
Fri 09:06:28 AM 45.5517 -87.5681 North 367 422 17,000 -1,463 Descending Minneapolis Center
Fri 09:07:29 AM 45.6514 -87.5475 North 357 411 15,400 -1,463 Descending Minneapolis Center
Fri 09:08:31 AM 45.7478 -87.5267 North 344 396 14,000 -677 Descending Minneapolis Center
Fri 09:09:33 AM 45.8519 -87.5056 North 346 398 14,000 -49 Level Minneapolis Center
Fri 09:10:34 AM 45.9486 -87.4858 North 345 397 13,900 -1,415 Descending Minneapolis Center
Fri 09:11:36 AM 46.0428 -87.4653 North 338 389 11,100 -2,661 Descending Minneapolis Center
Fri 09:12:38 AM 46.1292 -87.4469 North 307 353 8,400 -2,683 Descending Minneapolis Center
Fri 09:13:39 AM 46.2050 -87.4294 North 274 315 5,600 -2,537 Descending Minneapolis Center
Fri 09:14:41 AM 46.2756 -87.4133 North 253 291 3,200 -2,032 Descending Minneapolis Center
Fri 09:15:43 AM 46.3281 -87.4014 North 188 216 1,400 -1,742 Descending Minneapolis Center
Fri 09:17:00 AM 46.3500 -87.3833 North  Level FlightAware Approximate

Login

Don't have an account? Register now (free) for customized features, flight alerts, and more!